Forside
METAR-TAF:

METAR-TAF

Lufthavne :

Platteville, Wisconsin, USA

Breddekreds: 42-41-22N, længdekreds: 090-26-40W, højde: 312 m

Aktuelle vejr

Denne rapport blev lavet for 34 minutter siden, kl. 17:35 UTC
Vind 4 kt fra vestsydvest
Temperatur 26°C
Fugtighed 51%
Tryk 1021 hPa
Sigt: 16.1 km
Brudte skyer i en højde af 4300 ft
Brudte skyer i en højde af 5000 ft

METAR: KPVB 031735Z AUTO 25004KT 10SM BKN043 BKN050 26/15 A3014 RMK AO1 T02560145

Tid: 13:09 (18:09 UTC)


TAF: fraværende

Vejrobservationer og prognoser fra mere end 4000 lufthavne (METAR og TAF).

De gule og røde prikker repræsenterer de meteorologiske stationer.

Flyt musen over at se navnet på stationen.

Så klik over at se vejr observationer og prognoser.

At skifte det kort: Klik på de grønne knapper med et sort kors for at zoome ind; på den grønne knap med en bindestreg for at zoome ud; eller på de grønne pile for tilstødende kort.


METAR-TAF: